createdAt,value
2022-12-17T00:05:13.563Z,9.90
2022-12-17T00:19:13.574Z,9.80
2022-12-17T00:33:13.560Z,10.10
2022-12-17T00:47:13.661Z,9.90
2022-12-17T01:01:13.700Z,9.90
2022-12-17T01:15:13.587Z,9.90
2022-12-17T01:29:13.593Z,10.45
2022-12-17T01:43:13.583Z,10.45
2022-12-17T01:57:13.633Z,10.15
2022-12-17T02:11:13.634Z,9.80
2022-12-17T02:25:13.621Z,10.40
2022-12-17T02:39:13.626Z,9.60
2022-12-17T02:53:13.623Z,9.40
2022-12-17T03:07:13.649Z,9.70
2022-12-17T03:21:13.652Z,9.50
2022-12-17T03:35:13.744Z,9.30
2022-12-17T03:49:13.668Z,8.90
2022-12-17T04:03:13.730Z,8.60
2022-12-17T04:17:13.674Z,9.00
2022-12-17T04:31:13.722Z,8.50
2022-12-17T04:45:13.695Z,8.00
2022-12-17T04:59:13.676Z,8.10
2022-12-17T05:13:13.680Z,7.90
2022-12-17T05:27:13.711Z,7.80
2022-12-17T05:41:13.696Z,7.40
2022-12-17T05:55:13.708Z,6.80
2022-12-17T06:09:13.729Z,7.20
2022-12-17T06:23:13.716Z,8.30
2022-12-17T06:37:13.744Z,8.00
2022-12-17T06:52:13.754Z,7.30
2022-12-17T07:07:13.775Z,16.00
2022-12-17T07:22:13.743Z,18.65
2022-12-17T07:37:17.410Z,20.70
2022-12-17T07:52:13.750Z,20.40
2022-12-17T08:07:14.312Z,16.10
2022-12-17T08:22:13.860Z,16.60
2022-12-17T08:37:13.852Z,15.70
2022-12-17T08:52:13.856Z,15.00
2022-12-17T09:08:13.847Z,13.10
2022-12-17T09:23:13.873Z,11.80
2022-12-17T09:38:13.896Z,11.40
2022-12-17T09:53:13.901Z,9.40
2022-12-17T10:08:13.920Z,8.70
2022-12-17T10:23:13.906Z,10.40
2022-12-17T10:38:13.895Z,7.25
2022-12-17T10:53:13.938Z,6.10
2022-12-17T11:08:13.932Z,8.30
2022-12-17T11:23:13.950Z,7.90
2022-12-17T11:38:13.944Z,18.10
2022-12-17T11:53:13.956Z,6.30
2022-12-17T12:09:13.962Z,6.20
2022-12-17T12:24:13.959Z,5.50
2022-12-17T12:40:14.006Z,4.30
2022-12-17T12:55:14.009Z,5.00
2022-12-17T13:10:14.010Z,10.50
2022-12-17T13:25:14.016Z,5.40
2022-12-17T13:40:14.020Z,5.40
2022-12-17T13:55:14.043Z,5.50
2022-12-17T14:10:14.055Z,6.05
2022-12-17T14:25:14.068Z,5.60
2022-12-17T14:40:14.106Z,4.50
2022-12-17T14:55:14.104Z,5.10
2022-12-17T15:10:14.105Z,5.50
2022-12-17T15:25:14.106Z,5.60
2022-12-17T15:40:14.092Z,4.70
2022-12-17T15:55:14.116Z,3.90
2022-12-17T16:10:14.138Z,4.70
2022-12-17T16:24:14.136Z,3.80
2022-12-17T16:38:14.148Z,4.10
2022-12-17T16:52:14.144Z,4.00
2022-12-17T17:06:14.144Z,5.30
2022-12-17T17:20:14.146Z,3.80
2022-12-17T17:34:14.152Z,5.70
2022-12-17T17:48:14.192Z,5.00
2022-12-17T18:02:14.287Z,7.60
2022-12-17T18:16:14.236Z,7.60
2022-12-17T18:30:14.223Z,5.30
2022-12-17T18:44:14.222Z,4.80
2022-12-17T18:58:14.241Z,3.60
2022-12-17T19:12:14.249Z,3.50
2022-12-17T19:26:14.301Z,6.10
2022-12-17T19:40:14.290Z,7.90
2022-12-17T19:54:14.292Z,9.00
2022-12-17T20:08:17.039Z,12.10
2022-12-17T20:22:14.318Z,11.70
2022-12-17T20:33:14.311Z,11.60
2022-12-17T20:47:14.320Z,12.90
2022-12-17T21:01:14.395Z,12.80
2022-12-17T21:15:14.315Z,10.80
2022-12-17T21:29:14.381Z,9.80
2022-12-17T21:43:14.367Z,7.80
2022-12-17T21:57:14.386Z,9.00
2022-12-17T22:11:14.400Z,6.60
2022-12-17T22:25:14.375Z,6.70
2022-12-17T22:40:00.409Z,4.85
2022-12-17T22:53:14.456Z,4.80
2022-12-17T23:07:14.433Z,4.30
2022-12-17T23:21:14.497Z,3.70
2022-12-17T23:35:14.432Z,4.50
2022-12-17T23:49:14.455Z,3.60
